Time;durP1;ratioP1;P1;durP2;ratioP2;P2;SDS_P1;SDS_P2;PMS_P1;PMS_P2;Temp;Humidity;BMP_temperature;BMP_pressure;BME280_temperature;BME280_humidity;BME280_pressure;Samples;Min_cycle;Max_cycle;Signal;HPM_P1;HPM_P2
2024/01/16 00:01:07;;;;;;;7.30;3.03;;;;;;;-1.28;100.00;98236.97;5014256;28;20017;-57
2024/01/16 00:03:32;;;;;;;8.35;2.85;;;;;;;-1.36;100.00;98235.06;5013072;28;20661;-57
2024/01/16 00:05:58;;;;;;;7.97;2.90;;;;;;;-1.37;100.00;98230.72;5008899;28;20022;-59
2024/01/16 00:08:24;;;;;;;6.68;2.70;;;;;;;-1.44;100.00;98237.56;5011415;28;20119;-58
2024/01/16 00:10:50;;;;;;;8.10;3.00;;;;;;;-1.57;100.00;98244.00;5003959;28;20026;-57
2024/01/16 00:13:16;;;;;;;6.95;2.58;;;;;;;-1.69;100.00;98234.50;5013642;28;20083;-57
2024/01/16 00:15:43;;;;;;;5.97;2.63;;;;;;;-1.67;100.00;98245.81;5010805;28;20033;-58
2024/01/16 00:18:09;;;;;;;6.65;2.78;;;;;;;-1.79;100.00;98236.31;5011176;28;20018;-58
2024/01/16 00:20:35;;;;;;;6.22;2.75;;;;;;;-1.73;100.00;98240.22;5007542;28;20041;-58
2024/01/16 00:23:00;;;;;;;7.55;2.83;;;;;;;-1.67;100.00;98242.34;5015603;28;20096;-57
2024/01/16 00:25:26;;;;;;;11.70;3.67;;;;;;;-1.63;100.00;98244.53;5015419;28;20509;-57
2024/01/16 00:27:52;;;;;;;8.55;3.38;;;;;;;-1.65;100.00;98238.56;5002133;28;20030;-57
2024/01/16 00:30:31;;;;;;;11.18;2.90;;;;;;;-1.70;100.00;98242.59;5014323;28;20106;-57
2024/01/16 00:32:57;;;;;;;6.85;2.70;;;;;;;-1.77;100.00;98240.50;5007102;28;20110;-58
2024/01/16 00:35:23;;;;;;;6.25;3.00;;;;;;;-1.77;100.00;98242.31;5011714;28;20064;-57
2024/01/16 00:37:48;;;;;;;6.88;2.80;;;;;;;-1.78;100.00;98241.50;5011594;28;20030;-57
2024/01/16 00:40:14;;;;;;;6.43;2.90;;;;;;;-1.75;100.00;98248.34;5009684;28;20032;-57
2024/01/16 00:42:39;;;;;;;9.98;3.15;;;;;;;-1.83;100.00;98249.03;5011929;28;20041;-58
2024/01/16 00:45:05;;;;;;;6.30;2.67;;;;;;;-1.87;100.00;98257.38;5009561;28;20394;-58
2024/01/16 00:47:31;;;;;;;7.63;2.90;;;;;;;-1.83;100.00;98259.63;5043391;22;20128;-63
2024/01/16 00:49:56;;;;;;;7.60;3.10;;;;;;;-1.83;100.00;98242.91;5053998;28;20025;-63
2024/01/16 00:52:22;;;;;;;8.10;3.58;;;;;;;-1.88;100.00;98245.13;5053682;28;20552;-63
2024/01/16 00:54:47;;;;;;;6.82;3.05;;;;;;;-1.92;100.00;98243.72;5052855;28;20025;-63
2024/01/16 00:57:15;;;;;;;13.40;3.30;;;;;;;-1.92;100.00;98243.72;5046063;28;20548;-63
2024/01/16 00:59:40;;;;;;;8.48;3.20;;;;;;;-2.06;100.00;98240.50;5049451;28;20029;-63
2024/01/16 01:02:06;;;;;;;5.85;2.97;;;;;;;-2.02;100.00;98241.03;5054150;28;20024;-64
2024/01/16 01:04:32;;;;;;;6.22;3.20;;;;;;;-1.88;100.00;98245.13;5050137;28;20480;-64
2024/01/16 01:06:58;;;;;;;7.55;2.78;;;;;;;-1.85;100.00;98242.19;5041936;28;20499;-64
2024/01/16 01:19:28;;;;;;;7.35;2.88;;;;;;;-1.75;100.00;98240.38;5146305;22;20169;-61
2024/01/16 01:21:54;;;;;;;7.05;2.85;;;;;;;-1.64;100.00;98248.19;5053303;28;20134;-63
2024/01/16 01:24:19;;;;;;;13.98;3.08;;;;;;;-1.60;100.00;98257.56;5052922;28;20033;-63
2024/01/16 01:26:44;;;;;;;6.25;2.25;;;;;;;-1.64;100.00;98247.34;5041699;28;20384;-62
2024/01/16 01:29:10;;;;;;;10.43;3.35;;;;;;;-1.63;100.00;98255.16;5045788;28;20116;-62
2024/01/16 01:31:35;;;;;;;8.73;2.85;;;;;;;-1.61;100.00;98263.81;5053570;28;20209;-61
2024/01/16 01:34:01;;;;;;;6.38;3.00;;;;;;;-1.58;100.00;98268.84;5051180;28;20033;-61
2024/01/16 01:36:27;;;;;;;9.48;3.25;;;;;;;-1.67;100.00;98260.91;5045799;28;20048;-62
2024/01/16 01:38:52;;;;;;;10.55;3.30;;;;;;;-1.58;100.00;98276.78;5045348;28;20474;-63
2024/01/16 01:41:18;;;;;;;6.03;3.00;;;;;;;-1.46;100.00;98274.03;5051060;28;20037;-63
2024/01/16 01:43:43;;;;;;;4.97;2.67;;;;;;;-1.43;100.00;98277.22;5048350;28;20112;-63
2024/01/16 01:46:15;;;;;;;6.72;2.60;;;;;;;-1.49;100.00;98277.78;5046430;28;20025;-63
2024/01/16 01:48:42;;;;;;;4.30;2.90;;;;;;;-1.40;100.00;98279.59;5046480;28;20388;-63
2024/01/16 01:51:12;;;;;;;6.18;2.70;;;;;;;-1.35;100.00;98284.47;5050292;28;20072;-63
2024/01/16 01:53:42;;;;;;;8.13;3.30;;;;;;;-1.41;100.00;98275.28;5051446;28;20488;-63
2024/01/16 01:56:11;;;;;;;9.98;3.33;;;;;;;-1.38;100.00;98284.78;5051903;28;20044;-63
2024/01/16 01:58:38;;;;;;;7.38;2.78;;;;;;;-1.33;100.00;98287.84;5050200;28;20108;-63
2024/01/16 02:01:05;;;;;;;7.47;3.40;;;;;;;-1.30;100.00;98286.72;5046739;28;20107;-63
2024/01/16 02:23:41;;;;;;;8.75;2.97;;;;;;;-1.33;100.00;98309.06;5046091;28;20128;-62
2024/01/16 02:26:08;;;;;;;6.20;2.65;;;;;;;-1.25;100.00;98305.72;5051266;28;20025;-63
2024/01/16 02:28:33;;;;;;;6.40;2.70;;;;;;;-1.26;100.00;98315.47;5043751;28;20041;-63
2024/01/16 02:30:58;;;;;;;9.90;3.13;;;;;;;-1.23;100.00;98312.56;5045427;28;20032;-63
2024/01/16 02:33:24;;;;;;;9.80;2.97;;;;;;;-1.23;100.00;98299.28;5052331;28;20063;-63
2024/01/16 02:35:49;;;;;;;6.97;2.65;;;;;;;-1.26;100.00;98304.84;5048902;28;20064;-62
2024/01/16 02:38:14;;;;;;;7.25;2.72;;;;;;;-1.32;100.00;98284.19;5050304;28;20017;-62
2024/01/16 02:40:40;;;;;;;10.07;3.55;;;;;;;-1.27;100.00;98305.00;5050011;28;20060;-63
2024/01/16 02:43:06;;;;;;;8.93;2.67;;;;;;;-1.30;100.00;98302.63;5044979;28;20079;-63
2024/01/16 02:45:32;;;;;;;8.80;3.03;;;;;;;-1.31;100.00;98307.13;5045624;28;20087;-62
2024/01/16 02:47:58;;;;;;;6.78;2.85;;;;;;;-1.37;100.00;98305.00;5052373;28;20028;-63
2024/01/16 02:50:24;;;;;;;7.85;3.10;;;;;;;-1.40;100.00;98300.81;5043696;28;20029;-62
2024/01/16 02:52:49;;;;;;;5.95;2.75;;;;;;;-1.35;100.00;98289.78;5052320;28;20021;-62
2024/01/16 02:55:14;;;;;;;9.40;3.67;;;;;;;-1.35;100.00;98301.22;5046116;28;20025;-62
2024/01/16 02:57:40;;;;;;;9.38;3.40;;;;;;;-1.34;100.00;98304.72;5051399;28;20032;-63
2024/01/16 03:00:07;;;;;;;8.13;2.80;;;;;;;-1.35;100.00;98301.22;5050530;28;20017;-62
2024/01/16 03:02:33;;;;;;;7.55;3.78;;;;;;;-1.33;100.00;98303.75;5045037;28;20094;-63
2024/01/16 03:04:58;;;;;;;6.00;2.97;;;;;;;-1.38;100.00;98300.69;5049827;28;20471;-63
2024/01/16 03:07:24;;;;;;;8.50;3.13;;;;;;;-1.45;100.00;98300.41;5053420;28;20115;-62
2024/01/16 03:09:51;;;;;;;9.05;3.15;;;;;;;-1.44;100.00;98306.53;5045864;28;20032;-63
2024/01/16 03:12:17;;;;;;;7.20;2.88;;;;;;;-1.51;100.00;98302.78;5042029;28;20423;-63
2024/01/16 03:14:42;;;;;;;11.48;3.17;;;;;;;-1.58;100.00;98305.97;5048072;28;20495;-63
2024/01/16 03:17:08;;;;;;;5.28;2.60;;;;;;;-1.59;100.00;98303.47;5045225;28;20020;-63
2024/01/16 03:19:33;;;;;;;9.43;3.35;;;;;;;-1.61;100.00;98300.13;5046959;28;20029;-63
2024/01/16 03:21:58;;;;;;;8.77;3.10;;;;;;;-1.57;100.00;98306.84;5046013;28;20017;-63
2024/01/16 03:24:24;;;;;;;7.63;2.70;;;;;;;-1.46;100.00;98304.03;5044978;28;20048;-63
2024/01/16 03:26:49;;;;;;;10.20;3.25;;;;;;;-1.43;100.00;98302.91;5047079;28;20048;-63
2024/01/16 03:29:15;;;;;;;7.68;3.35;;;;;;;-1.43;100.00;98281.69;5049016;28;20024;-63
2024/01/16 03:31:40;;;;;;;6.15;2.97;;;;;;;-1.36;100.00;98299.56;5050186;28;20074;-63
2024/01/16 03:34:08;;;;;;;6.22;2.88;;;;;;;-1.32;100.00;98303.59;5050270;28;20025;-63
2024/01/16 03:36:34;;;;;;;9.07;2.70;;;;;;;-1.32;100.00;98310.72;5038600;28;20384;-63
2024/01/16 03:38:59;;;;;;;9.07;2.90;;;;;;;-1.30;100.00;98319.41;5050670;28;20021;-63
2024/01/16 03:41:24;;;;;;;9.90;2.95;;;;;;;-1.28;100.00;98306.81;5050690;28;20033;-63
2024/01/16 03:43:50;;;;;;;6.63;2.85;;;;;;;-1.35;100.00;98300.41;5044732;28;20027;-63
2024/01/16 03:46:15;;;;;;;6.22;3.10;;;;;;;-1.37;100.00;98307.66;5042896;28;20082;-63
2024/01/16 03:48:40;;;;;;;6.55;2.67;;;;;;;-1.37;100.00;98307.66;5042579;28;20112;-63
2024/01/16 03:51:06;;;;;;;7.55;3.05;;;;;;;-1.36;100.00;98304.03;5041817;28;20029;-63
2024/01/16 03:53:32;;;;;;;9.30;2.85;;;;;;;-1.37;100.00;98305.00;5051813;28;20170;-63
2024/01/16 03:55:57;;;;;;;7.72;2.85;;;;;;;-1.42;100.00;98300.09;5041691;28;20870;-63
2024/01/16 03:58:23;;;;;;;6.47;3.22;;;;;;;-1.43;100.00;98306.41;5050623;28;20031;-63
2024/01/16 04:00:50;;;;;;;6.00;3.05;;;;;;;-1.41;100.00;98306.28;5049351;28;20025;-63
2024/01/16 04:03:17;;;;;;;8.57;3.28;;;;;;;-1.41;100.00;98314.25;5045484;28;20372;-63
2024/01/16 04:05:42;;;;;;;10.60;2.90;;;;;;;-1.41;100.00;98311.59;5047015;28;20029;-63
2024/01/16 04:08:08;;;;;;;9.48;3.33;;;;;;;-1.36;100.00;98304.03;5040171;28;20028;-63
2024/01/16 04:10:33;;;;;;;6.30;2.75;;;;;;;-1.38;100.00;98309.47;5053142;28;20396;-63
2024/01/16 04:13:02;;;;;;;11.05;2.80;;;;;;;-1.36;100.00;98298.75;5049153;28;20042;-63
2024/01/16 04:15:28;;;;;;;;;;;;;;;-1.44;100.00;98302.09;5049273;28;20020;-63
2024/01/16 04:17:54;;;;;;;6.20;2.75;;;;;;;-1.42;100.00;98309.88;5045380;28;19913;-63
2024/01/16 04:20:19;;;;;;;7.78;2.78;;;;;;;-1.45;100.00;98311.00;5049326;28;20029;-63
2024/01/16 04:22:45;;;;;;;7.47;3.35;;;;;;;-1.57;100.00;98305.00;5051760;28;20036;-63
2024/01/16 04:25:11;;;;;;;9.27;3.13;;;;;;;-1.57;100.00;98305.00;5050616;28;20031;-62
2024/01/16 04:27:36;;;;;;;6.32;3.10;;;;;;;-1.66;100.00;98297.88;5047242;28;20021;-63
2024/01/16 04:30:01;;;;;;;7.28;2.88;;;;;;;-1.77;100.00;98305.97;5048856;28;20075;-63
2024/01/16 04:32:27;;;;;;;6.18;3.53;;;;;;;-1.89;100.00;98296.44;5047690;28;20023;-63
2024/01/16 04:34:52;;;;;;;10.45;3.78;;;;;;;-1.86;100.00;98296.16;5051325;28;20059;-62
2024/01/16 04:37:18;;;;;;;9.45;3.38;;;;;;;-1.90;100.00;98302.75;5048482;28;20080;-63
2024/01/16 04:39:43;;;;;;;6.65;2.65;;;;;;;-1.92;100.00;98291.44;5052846;28;20021;-63
2024/01/16 04:42:09;;;;;;;10.07;3.33;;;;;;;-2.02;100.00;98288.75;5050537;28;20039;-63
2024/01/16 04:44:34;;;;;;;9.93;3.35;;;;;;;-2.11;100.00;98292.22;5053278;28;20021;-63
2024/01/16 04:47:00;;;;;;;10.25;3.15;;;;;;;-2.17;100.00;98304.22;5053119;28;20028;-63
2024/01/16 04:49:25;;;;;;;5.57;2.70;;;;;;;-2.23;100.00;98304.75;5053365;28;20021;-63
2024/01/16 04:51:50;;;;;;;8.13;2.58;;;;;;;-2.39;100.00;98292.00;5048226;28;20461;-63
2024/01/16 04:54:16;;;;;;;6.40;2.72;;;;;;;-2.45;100.00;98295.19;5048990;28;20104;-63
2024/01/16 04:56:41;;;;;;;9.20;3.08;;;;;;;-2.55;100.00;98305.75;5051254;28;20383;-63
2024/01/16 04:59:06;;;;;;;10.18;3.42;;;;;;;-2.65;100.00;98303.06;5050327;28;20412;-63
2024/01/16 05:01:32;;;;;;;8.88;3.17;;;;;;;-2.74;100.00;98295.06;5049450;28;20036;-62
2024/01/16 05:03:57;;;;;;;7.28;3.08;;;;;;;-2.84;100.00;98297.66;5051114;28;20028;-62
2024/01/16 05:06:23;;;;;;;8.40;3.13;;;;;;;-2.88;100.00;98299.75;5051773;28;20082;-62
2024/01/16 05:08:48;;;;;;;12.57;3.22;;;;;;;-2.91;100.00;98302.66;5043486;28;20060;-62
2024/01/16 05:11:14;;;;;;;5.50;2.95;;;;;;;-2.97;100.00;98300.50;5051931;28;20490;-62
2024/01/16 05:13:39;;;;;;;8.07;3.30;;;;;;;-2.92;100.00;98293.03;5051375;28;20096;-62
2024/01/16 05:16:05;;;;;;;9.98;3.35;;;;;;;-2.98;100.00;98296.19;5049714;28;20032;-62
2024/01/16 05:18:32;;;;;;;8.50;3.55;;;;;;;-3.07;100.00;98296.97;5051965;28;20024;-62
2024/01/16 05:20:58;;;;;;;7.45;3.50;;;;;;;-3.21;100.00;98281.44;5053868;28;20031;-63
2024/01/16 05:23:23;;;;;;;9.38;3.05;;;;;;;-3.25;100.00;98290.59;5047850;28;20021;-63
2024/01/16 05:25:49;;;;;;;10.52;3.10;;;;;;;-3.35;100.00;98285.25;5042058;28;20034;-63
2024/01/16 05:28:15;;;;;;;16.10;4.03;;;;;;;-3.40;100.00;98295.38;5055024;28;20032;-63
2024/01/16 05:30:40;;;;;;;11.93;3.78;;;;;;;-3.42;100.00;98298.13;5049426;28;20025;-61
2024/01/16 05:33:07;;;;;;;8.00;3.58;;;;;;;-3.48;100.00;98288.06;5049016;28;20032;-61
2024/01/16 05:35:32;;;;;;;9.07;3.40;;;;;;;-3.54;100.00;98283.28;5049249;28;20107;-63
2024/01/16 05:37:59;;;;;;;7.68;3.03;;;;;;;-3.53;100.00;98288.44;5053630;28;20556;-63
2024/01/16 05:40:24;;;;;;;9.20;3.70;;;;;;;-3.52;100.00;98284.00;5049031;28;20028;-63
2024/01/16 05:42:50;;;;;;;14.32;3.72;;;;;;;-3.53;100.00;98283.16;5046868;28;20022;-63
2024/01/16 05:45:16;;;;;;;8.80;3.45;;;;;;;-3.52;100.00;98284.81;5051361;28;20056;-62
2024/01/16 05:47:41;;;;;;;8.73;3.88;;;;;;;-3.58;100.00;98274.78;5046961;28;20029;-63
2024/01/16 05:50:08;;;;;;;11.55;3.90;;;;;;;-3.53;100.00;98283.16;5051325;28;20025;-63
2024/01/16 05:52:34;;;;;;;10.82;4.10;;;;;;;-3.44;100.00;98288.66;5051196;28;20048;-63
2024/01/16 05:54:59;;;;;;;14.65;4.75;;;;;;;-3.43;100.00;98271.78;5050997;28;20056;-63
2024/01/16 05:57:26;;;;;;;13.32;4.05;;;;;;;-3.48;100.00;98263.41;5051995;28;20039;-63
2024/01/16 05:59:51;;;;;;;10.77;3.47;;;;;;;-3.43;100.00;98270.03;5052775;28;20484;-62
2024/01/16 06:02:17;;;;;;;9.48;3.38;;;;;;;-3.43;100.00;98262.09;5048026;28;20031;-63
2024/01/16 06:04:42;;;;;;;14.48;5.35;;;;;;;-3.50;100.00;98268.84;5051393;28;20369;-63
2024/01/16 06:07:08;;;;;;;9.70;4.20;;;;;;;-3.55;100.00;98268.38;5051830;28;20032;-63
2024/01/16 06:09:37;;;;;;;12.15;4.53;;;;;;;-3.56;100.00;98266.72;5051326;28;20036;-63
2024/01/16 06:12:05;;;;;;;12.57;4.10;;;;;;;-3.60;100.00;98270.56;5057205;28;20468;-63
2024/01/16 06:14:30;;;;;;;10.30;4.85;;;;;;;-3.58;100.00;98273.94;5050355;28;20401;-63
2024/01/16 06:16:56;;;;;;;15.88;4.35;;;;;;;-3.55;100.00;98269.22;5041546;28;20036;-63
2024/01/16 06:19:21;;;;;;;16.58;5.32;;;;;;;-3.50;100.00;98260.09;5038485;28;20100;-63
2024/01/16 06:21:47;;;;;;;12.50;5.53;;;;;;;-3.47;100.00;98254.53;5044212;28;20115;-63
2024/01/16 06:24:13;;;;;;;8.90;5.35;;;;;;;-3.38;100.00;98254.59;5048067;28;20072;-63
2024/01/16 06:26:38;;;;;;;14.57;5.85;;;;;;;-3.51;100.00;98243.38;5046333;28;20021;-63
2024/01/16 06:29:04;;;;;;;12.02;4.20;;;;;;;-3.40;100.00;98251.25;5047994;28;20138;-63
2024/01/16 06:31:29;;;;;;;8.40;3.60;;;;;;;-3.45;100.00;98263.19;5049667;28;20060;-63
2024/01/16 06:33:55;;;;;;;7.85;3.42;;;;;;;-3.43;100.00;98258.56;5050637;28;20028;-62
2024/01/16 06:36:21;;;;;;;9.95;4.22;;;;;;;-3.47;100.00;98246.59;5047826;28;20024;-62
2024/01/16 06:38:46;;;;;;;9.52;4.25;;;;;;;-3.54;100.00;98243.63;5047747;28;20035;-62
2024/01/16 06:41:11;;;;;;;13.23;4.10;;;;;;;-3.46;100.00;98246.44;5046278;28;20030;-63
2024/01/16 06:43:37;;;;;;;11.30;3.97;;;;;;;-3.48;100.00;98251.06;5041914;28;20033;-63
2024/01/16 06:46:03;;;;;;;11.68;4.60;;;;;;;-3.49;100.00;98261.75;5045891;28;21323;-63
2024/01/16 06:48:38;;;;;;;12.85;4.78;;;;;;;-3.57;100.00;98255.28;5094863;22;20053;-59
2024/01/16 06:51:04;;;;;;;16.60;6.25;;;;;;;-3.72;100.00;98247.78;5048164;28;20033;-60
2024/01/16 06:53:29;;;;;;;11.10;5.22;;;;;;;-3.68;100.00;98262.44;5045658;28;20064;-59
2024/01/16 06:55:55;;;;;;;13.05;4.30;;;;;;;-3.69;100.00;98266.91;5044574;28;20962;-57
2024/01/16 06:58:20;;;;;;;8.30;3.85;;;;;;;-3.64;100.00;98258.56;5048655;28;20396;-57
2024/01/16 07:00:47;;;;;;;11.30;4.50;;;;;;;-3.58;100.00;98273.94;5046927;28;20400;-57
2024/01/16 07:03:13;;;;;;;7.28;3.58;;;;;;;-3.54;100.00;98270.06;5048821;28;20047;-57
2024/01/16 07:05:40;;;;;;;12.13;3.58;;;;;;;-3.53;100.00;98271.75;5044317;28;20128;-57
2024/01/16 07:08:07;;;;;;;8.70;4.00;;;;;;;-3.48;100.00;98268.69;5050025;28;20078;-56
2024/01/16 07:10:33;;;;;;;8.35;3.70;;;;;;;-3.45;100.00;98269.31;5050720;28;20029;-56
2024/01/16 07:12:59;;;;;;;8.77;3.65;;;;;;;-3.46;100.00;98264.13;5049773;28;20437;-58
2024/01/16 07:15:25;;;;;;;10.38;4.30;;;;;;;-3.45;100.00;98268.47;5042995;28;20154;-56
2024/01/16 07:17:50;;;;;;;11.52;5.30;;;;;;;-3.47;100.00;98268.59;5043657;28;20054;-60
2024/01/16 07:20:16;;;;;;;12.95;4.90;;;;;;;-3.46;100.00;98272.91;5045557;28;20034;-56
2024/01/16 07:22:41;;;;;;;14.30;4.22;;;;;;;-3.40;100.00;98277.69;5046467;28;20028;-57
2024/01/16 07:25:07;;;;;;;8.77;3.83;;;;;;;-3.41;100.00;98283.94;5043438;28;20120;-56
2024/01/16 07:27:34;;;;;;;8.32;3.88;;;;;;;-3.39;100.00;98275.88;5040242;28;20064;-57
2024/01/16 07:29:59;;;;;;;8.48;4.18;;;;;;;-3.33;100.00;98278.00;5042934;28;20429;-57
2024/01/16 07:32:25;;;;;;;9.13;3.75;;;;;;;-3.35;100.00;98279.97;5049540;28;20104;-59
2024/01/16 07:34:52;;;;;;;9.75;4.05;;;;;;;-3.31;100.00;98278.72;5049198;28;20080;-57
2024/01/16 07:37:18;;;;;;;11.35;3.90;;;;;;;-3.32;100.00;98279.69;5048888;28;20488;-57
2024/01/16 07:39:44;;;;;;;11.32;4.88;;;;;;;-3.26;100.00;98281.81;5047769;28;20029;-57
2024/01/16 07:42:09;;;;;;;14.57;4.72;;;;;;;-3.23;100.00;98265.69;5044555;28;20075;-57
2024/01/16 07:44:35;;;;;;;13.25;5.35;;;;;;;-3.10;100.00;98276.91;5047468;28;20370;-57
2024/01/16 07:47:01;;;;;;;12.48;4.78;;;;;;;-3.06;100.00;98285.44;5045067;28;20072;-57
2024/01/16 07:49:26;;;;;;;12.18;4.40;;;;;;;-3.01;100.00;98277.06;5048455;28;20500;-57
2024/01/16 07:51:52;;;;;;;11.45;4.68;;;;;;;-2.97;100.00;98273.22;5047503;28;20475;-57
2024/01/16 07:54:17;;;;;;;18.70;4.88;;;;;;;-2.91;100.00;98256.81;5048862;28;20030;-57
2024/01/16 07:56:42;;;;;;;8.15;4.00;;;;;;;-2.77;100.00;98268.88;5045547;28;20405;-57
2024/01/16 07:59:08;;;;;;;10.57;4.00;;;;;;;-2.71;100.00;98270.97;5045748;28;20043;-57
2024/01/16 08:01:33;;;;;;;12.85;3.95;;;;;;;-2.64;100.00;98269.47;5046270;28;20036;-57
2024/01/16 08:03:59;;;;;;;10.75;3.65;;;;;;;-2.53;100.00;98268.53;5045729;28;20033;-56
2024/01/16 08:06:25;;;;;;;10.70;3.83;;;;;;;-2.63;100.00;98259.72;5049740;28;20115;-56
2024/01/16 08:08:50;;;;;;;8.07;3.45;;;;;;;-2.43;100.00;98278.19;5047535;28;20060;-56
2024/01/16 08:11:18;;;;;;;8.75;3.53;;;;;;;-2.32;100.00;98264.00;5053118;28;20016;-56
2024/01/16 08:13:43;;;;;;;10.38;3.65;;;;;;;-2.16;100.00;98274.09;5056456;28;20025;-56
2024/01/16 08:16:09;;;;;;;7.85;3.17;;;;;;;-2.03;100.00;98273.84;5049678;28;20419;-56
2024/01/16 08:18:35;;;;;;;12.73;3.75;;;;;;;-2.02;100.00;98275.50;5053367;28;20025;-56
2024/01/16 08:21:00;;;;;;;9.27;3.80;;;;;;;-1.96;100.00;98274.13;5051687;28;20072;-56
2024/01/16 08:23:25;;;;;;;8.20;3.88;;;;;;;-1.84;100.00;98273.84;5046939;28;20044;-56
2024/01/16 08:25:51;;;;;;;13.02;3.60;;;;;;;-1.77;100.00;98267.03;5048276;28;20029;-56
2024/01/16 08:28:20;;;;;;;11.25;3.58;;;;;;;-1.67;100.00;98269.69;5052057;28;20031;-56
2024/01/16 08:30:46;;;;;;;12.65;4.63;;;;;;;-1.66;100.00;98275.81;5052264;28;20029;-56
2024/01/16 08:33:12;;;;;;;9.30;3.80;;;;;;;-1.48;100.00;98278.63;5048704;28;20033;-56
2024/01/16 08:35:37;;;;;;;8.50;3.55;;;;;;;-1.45;100.00;98281.81;5048349;28;20033;-56
2024/01/16 08:38:03;;;;;;;14.43;3.78;;;;;;;-1.26;100.00;98288.09;5050278;28;20020;-56
2024/01/16 08:40:28;;;;;;;10.18;3.85;;;;;;;-1.25;100.00;98271.22;5050588;28;20033;-56
2024/01/16 08:42:57;;;;;;;10.35;3.72;;;;;;;-1.19;100.00;98282.09;5052340;28;20079;-56
2024/01/16 08:45:23;;;;;;;9.10;3.85;;;;;;;-1.03;100.00;98283.31;5050629;28;20400;-56
2024/01/16 08:47:48;;;;;;;8.85;3.10;;;;;;;-1.00;100.00;98291.81;5053769;28;20028;-56
2024/01/16 08:50:16;;;;;;;8.65;3.88;;;;;;;-0.88;100.00;98287.19;5050739;28;20029;-56
2024/01/16 08:55:16;;;;;;;9.80;3.78;;;;;;;-0.84;100.00;98288.56;5374305;22;20283;-57
2024/01/16 08:57:47;;;;;;;8.30;3.40;;;;;;;-0.61;100.00;98296.22;5290694;22;20018;-57
2024/01/16 09:00:33;;;;;;;8.18;3.47;;;;;;;-0.58;100.00;98287.94;5194165;22;20052;-57
2024/01/16 09:02:58;;;;;;;8.45;3.58;;;;;;;-0.27;100.00;98288.50;5049026;28;20017;-57
2024/01/16 09:05:25;;;;;;;9.93;3.83;;;;;;;0.19;100.00;98303.50;5055031;28;20036;-57
2024/01/16 09:07:57;;;;;;;7.63;3.25;;;;;;;0.44;100.00;98301.09;5053977;28;20464;-57
2024/01/16 09:10:22;;;;;;;10.98;3.65;;;;;;;0.58;100.00;98300.56;5055261;28;20025;-57
2024/01/16 09:12:48;;;;;;;9.32;3.58;;;;;;;0.80;100.00;98295.75;5055229;28;20024;-57
2024/01/16 09:15:15;;;;;;;9.40;3.60;;;;;;;1.36;100.00;98290.97;5046705;28;20059;-57
2024/01/16 09:17:41;;;;;;;7.65;3.45;;;;;;;1.30;100.00;98295.94;5054294;28;20060;-57
2024/01/16 09:20:07;;;;;;;9.48;3.63;;;;;;;1.45;100.00;98280.22;5055898;28;20599;-57
2024/01/16 09:22:44;;;;;;;9.93;3.40;;;;;;;1.67;100.00;98302.81;5057559;28;20033;-57
2024/01/16 09:25:09;;;;;;;8.77;3.63;;;;;;;1.86;100.00;98301.75;5047210;28;20037;-57
2024/01/16 09:27:35;;;;;;;10.88;3.65;;;;;;;1.80;100.00;98307.72;5058259;28;20021;-57
2024/01/16 09:30:05;;;;;;;11.00;3.95;;;;;;;1.95;100.00;98298.13;5055517;28;20017;-57
2024/01/16 09:32:30;;;;;;;9.52;3.88;;;;;;;2.44;100.00;98313.44;5059057;28;20021;-58
2024/01/16 09:34:55;;;;;;;7.60;3.60;;;;;;;2.54;100.00;98298.13;5056197;28;20031;-58
2024/01/16 09:37:42;;;;;;;10.88;3.97;;;;;;;2.52;100.00;98320.63;5053612;28;20033;-58
2024/01/16 09:40:08;;;;;;;9.98;4.20;;;;;;;2.61;100.00;98301.78;5052143;28;20066;-58
2024/01/16 09:42:34;;;;;;;10.38;4.15;;;;;;;2.78;100.00;98307.16;5052193;28;20107;-58
2024/01/16 09:45:18;;;;;;;7.20;4.00;;;;;;;2.38;100.00;98314.09;5055580;28;20035;-58
2024/01/16 09:47:45;;;;;;;8.35;3.90;;;;;;;2.70;100.00;98310.66;5051711;28;20020;-58
2024/01/16 09:50:13;;;;;;;7.10;3.33;;;;;;;2.85;100.00;98305.47;5056746;28;20111;-58
2024/01/16 09:52:38;;;;;;;7.28;3.47;;;;;;;3.40;100.00;98304.75;5050352;28;20013;-58
2024/01/16 09:55:05;;;;;;;7.30;3.70;;;;;;;3.70;100.00;98305.88;5054815;28;20040;-58
2024/01/16 09:57:32;;;;;;;6.55;3.13;;;;;;;4.26;91.19;98307.66;5053416;28;20468;-58
2024/01/16 10:00:00;;;;;;;6.75;3.42;;;;;;;4.68;86.46;98303.72;5046549;28;20028;-58
2024/01/16 10:02:26;;;;;;;7.65;3.28;;;;;;;4.68;83.20;98298.34;5048202;28;20476;-58
2024/01/16 10:04:52;;;;;;;8.77;3.40;;;;;;;4.23;82.85;98291.94;5058061;28;20388;-58
2024/01/16 10:07:25;;;;;;;11.23;3.58;;;;;;;3.68;86.40;98283.78;5051570;28;20036;-57
2024/01/16 10:09:51;;;;;;;7.93;2.38;;;;;;;3.56;84.61;98287.84;5052661;28;20025;-57
2024/01/16 10:12:16;;;;;;;9.98;3.10;;;;;;;3.15;87.62;98285.25;5056285;28;20028;-57
2024/01/16 10:14:43;;;;;;;7.85;3.10;;;;;;;3.04;90.74;98278.44;5055353;28;20035;-57
2024/01/16 10:17:12;;;;;;;8.45;3.15;;;;;;;2.80;92.25;98276.59;5050898;28;20036;-57
2024/01/16 10:19:47;;;;;;;;;;;;;;;2.79;90.74;98282.94;5053427;28;20520;-57
2024/01/16 10:22:12;;;;;;;7.00;2.75;;;;;;;2.92;91.41;98262.91;5049062;28;20407;-57
2024/01/16 10:24:38;;;;;;;6.32;2.97;;;;;;;2.70;89.42;98264.38;5050194;28;20040;-56
2024/01/16 10:27:03;;;;;;;10.65;3.08;;;;;;;3.74;88.34;98240.28;5054180;28;20384;-56
2024/01/16 10:29:31;;;;;;;8.23;2.72;;;;;;;5.26;82.28;98248.59;5048988;28;20032;-56
2024/01/16 10:31:58;;;;;;;6.93;2.90;;;;;;;7.81;71.09;98241.09;5049516;28;20021;-56
2024/01/16 10:34:23;;;;;;;7.32;3.10;;;;;;;9.68;61.65;98234.94;5048478;28;20033;-56
2024/01/16 10:36:52;;;;;;;10.40;3.45;;;;;;;8.56;61.21;98232.03;5054205;28;20031;-57
2024/01/16 10:39:17;;;;;;;6.70;3.13;;;;;;;7.04;63.00;98264.38;5038166;28;20027;-56
2024/01/16 10:41:54;;;;;;;7.57;2.97;;;;;;;6.53;63.86;98251.09;5043398;28;20283;-57
2024/01/16 10:44:19;;;;;;;5.40;2.47;;;;;;;5.88;66.04;98261.66;5049212;28;20104;-57
2024/01/16 10:46:45;;;;;;;8.40;3.20;;;;;;;5.68;67.98;98265.91;5055963;28;20100;-57
2024/01/16 10:49:10;;;;;;;5.50;3.03;;;;;;;6.07;67.92;98268.31;5049244;28;20056;-57
2024/01/16 10:51:35;;;;;;;8.35;3.20;;;;;;;5.38;67.38;98263.22;5050024;28;20033;-57
2024/01/16 10:54:10;;;;;;;8.52;3.10;;;;;;;5.01;67.58;98254.19;5046400;28;20024;-57
2024/01/16 10:56:36;;;;;;;6.45;2.70;;;;;;;3.97;70.76;98262.78;5048941;28;20029;-57
2024/01/16 10:59:34;;;;;;;7.03;2.95;;;;;;;3.79;73.22;98255.84;5047868;28;20042;-56
2024/01/16 11:02:03;;;;;;;6.30;2.60;;;;;;;4.87;72.63;98249.63;5047855;28;20384;-56
2024/01/16 11:04:28;;;;;;;7.07;3.28;;;;;;;5.10;69.96;98238.03;5053586;28;20082;-57
2024/01/16 11:06:55;;;;;;;9.75;3.13;;;;;;;5.81;71.02;98236.56;5048445;28;20071;-56
2024/01/16 11:09:24;;;;;;;7.20;3.28;;;;;;;6.90;67.52;98246.47;5043703;28;20036;-56
2024/01/16 11:11:53;;;;;;;9.48;3.10;;;;;;;6.99;64.76;98234.53;5052235;28;20035;-56
2024/01/16 11:14:22;;;;;;;6.78;3.53;;;;;;;6.63;63.75;98240.84;5044859;28;20025;-56
2024/01/16 11:16:48;;;;;;;7.47;3.35;;;;;;;7.00;64.11;98217.38;5052421;28;20490;-57
2024/01/16 11:19:16;;;;;;;8.80;3.20;;;;;;;7.41;62.53;98216.63;5045844;28;20032;-57
2024/01/16 11:21:42;;;;;;;8.30;3.17;;;;;;;7.31;61.86;98213.44;5052078;28;20490;-57
2024/01/16 11:24:07;;;;;;;7.85;2.97;;;;;;;7.59;62.00;98208.03;5048650;28;20033;-57
2024/01/16 11:26:40;;;;;;;7.50;2.90;;;;;;;8.28;60.56;98202.53;5047532;28;20024;-57
2024/01/16 11:29:27;;;;;;;7.10;3.00;;;;;;;10.89;56.04;98198.16;5045999;28;20025;-58
2024/01/16 11:31:53;;;;;;;6.75;3.40;;;;;;;13.38;51.03;98173.72;5038671;28;20048;-58
2024/01/16 11:34:40;;;;;;;10.82;3.28;;;;;;;13.53;48.35;98180.56;5048833;28;20104;-57
2024/01/16 11:37:07;;;;;;;8.38;3.47;;;;;;;13.04;48.33;98178.03;5044564;28;20108;-58
2024/01/16 11:39:33;;;;;;;7.40;3.13;;;;;;;13.73;49.00;98164.72;5038080;28;20033;-58
2024/01/16 11:41:59;;;;;;;11.35;2.92;;;;;;;13.27;45.94;98177.25;5050605;28;20020;-60
2024/01/16 11:44:55;;;;;;;8.23;3.63;;;;;;;13.46;46.78;98168.97;5053497;28;20026;-58
2024/01/16 11:47:21;;;;;;;7.57;2.65;;;;;;;12.81;47.42;98153.56;5051651;28;20033;-60
2024/01/16 11:49:48;;;;;;;7.00;3.22;;;;;;;12.33;47.50;98152.63;5048025;28;20025;-60
2024/01/16 11:52:14;;;;;;;7.00;3.25;;;;;;;11.86;49.06;98160.56;5051194;28;20366;-60
2024/01/16 11:54:41;;;;;;;9.60;3.30;;;;;;;12.29;48.12;98143.31;5049327;28;20087;-60
2024/01/16 11:57:09;;;;;;;7.15;3.15;;;;;;;13.13;47.95;98138.63;5048240;28;20025;-61